Aviation Digital Data Service (ADDS)

Output produced by METARs form (0041 UTC 24 May 2022)
found at http://www.aviationweather.gov/metar/data/
 
TAF FIMR 232315Z 2400/2418 12018G30KT 9999 SCT018 
     PROB30 
     TEMPO 2405/2409 7000 -SHRA BKN016
       
FIMP 240000Z 11009KT 9999 FEW018 23/18 Q1017
TAF COR FIMP 232310Z 2400/2506 11013G23KT 9999 SCT017 
     TEMPO 2421/2506 7000 -SHRA FEW010 BKN015